(Default Airport = EGHI - Southampton International)

METAR = EGHI 152220Z 26013KT 220V280 9000 SHRA BKN035 07/05 Q0999

STATION........ EGHI
OBSERVED....... Sun Dec 15, 22:20 GMT
NOW............ Mon Dec 16, 05:24 GMT
AGE............ 7:04 hr ago
WIND........... W at 15 mph
VISIBILITY..... 15 miles
CONDITIONS..... rain showers
CLOUDS......... mostly cloudy
TEMP........... 45°F (7°C)
WIND CHILL..... 38°F (3°C)
DEWPT.......... 41°F (5°C)
HUMIDITY....... 87%
BAROMETER...... 999 hPa (29.5 in Hg)


    Get Weather Info from Airport: